Time;durP1;ratioP1;P1;durP2;ratioP2;P2;SDS_P1;SDS_P2;PMS_P1;PMS_P2;Temp;Humidity;BMP_temperature;BMP_pressure;BME280_temperature;BME280_humidity;BME280_pressure;Samples;Min_cycle;Max_cycle;Signal;HPM_P1;HPM_P2
2022/04/29 00:00:34;;;;;;;4.20;3.85;;;8.50;99.90;;;;;;5013305;28;20315;-62
2022/04/29 00:03:00;;;;;;;3.35;3.15;;;8.40;99.90;;;;;;5013809;28;20207;-62
2022/04/29 00:05:27;;;;;;;4.38;4.00;;;8.40;99.90;;;;;;5014771;28;20691;-62
2022/04/29 00:07:52;;;;;;;4.25;3.90;;;8.30;99.90;;;;;;5033149;28;20177;-63
2022/04/29 00:10:19;;;;;;;4.83;4.17;;;8.30;99.90;;;;;;5033244;28;20166;-62
2022/04/29 00:12:47;;;;;;;3.45;3.22;;;8.30;99.90;;;;;;5033108;28;20180;-63
2022/04/29 00:15:14;;;;;;;5.13;4.60;;;8.30;99.90;;;;;;5032695;28;20222;-62
2022/04/29 00:17:40;;;;;;;4.82;4.35;;;8.20;99.90;;;;;;5033038;28;20206;-62
2022/04/29 00:20:07;;;;;;;4.63;4.32;;;8.20;99.90;;;;;;5031648;28;20243;-61
2022/04/29 00:22:33;;;;;;;4.10;3.60;;;8.20;99.90;;;;;;5013322;28;20202;-62
2022/04/29 00:24:58;;;;;;;4.43;3.97;;;8.10;99.90;;;;;;5012717;28;20240;-61
2022/04/29 00:27:24;;;;;;;5.67;5.03;;;8.10;99.90;;;;;;5013155;28;20405;-63
2022/04/29 00:29:50;;;;;;;4.50;4.10;;;8.00;99.90;;;;;;5013370;28;20173;-63
2022/04/29 00:32:16;;;;;;;3.47;3.27;;;8.00;99.90;;;;;;5013341;28;20180;-62
2022/04/29 00:34:41;;;;;;;4.80;4.40;;;8.00;99.90;;;;;;5012698;28;20565;-63
2022/04/29 00:37:07;;;;;;;4.50;4.10;;;8.00;99.90;;;;;;5032701;28;20701;-62
2022/04/29 00:39:33;;;;;;;4.83;4.33;;;8.00;99.90;;;;;;5032855;28;20185;-62
2022/04/29 00:41:58;;;;;;;4.97;3.70;;;7.90;99.90;;;;;;5032824;28;20977;-62
2022/04/29 00:44:24;;;;;;;4.90;4.40;;;7.90;99.90;;;;;;5032498;28;20438;-62
2022/04/29 00:46:51;;;;;;;4.77;4.37;;;7.90;99.90;;;;;;5034662;28;20696;-62
2022/04/29 00:49:18;;;;;;;5.07;3.75;;;7.90;99.90;;;;;;5036359;28;20252;-61
2022/04/29 00:51:51;;;;;;;5.97;5.30;;;7.90;99.90;;;;;;5017520;28;20176;-62
2022/04/29 00:54:31;;;;;;;4.28;3.55;;;7.80;99.90;;;;;;5015961;28;20552;-63
2022/04/29 00:56:59;;;;;;;6.93;3.80;;;7.80;99.90;;;;;;5015333;28;20529;-62
2022/04/29 00:59:26;;;;;;;4.35;3.95;;;7.80;99.90;;;;;;5016594;28;20256;-62
2022/04/29 01:01:54;;;;;;;3.53;3.22;;;7.70;99.90;;;;;;5016512;28;20254;-62
2022/04/29 01:04:28;;;;;;;5.78;4.10;;;7.60;99.90;;;;;;5016608;28;20713;-62
2022/04/29 01:06:54;;;;;;;4.03;3.75;;;7.50;99.90;;;;;;5036201;28;20215;-62
2022/04/29 01:09:20;;;;;;;3.80;3.50;;;7.50;99.90;;;;;;5036107;28;20179;-62
2022/04/29 01:11:46;;;;;;;4.93;4.40;;;7.50;99.90;;;;;;5035956;28;20714;-62
2022/04/29 01:14:11;;;;;;;3.40;3.15;;;7.40;99.90;;;;;;5035514;28;20209;-62
2022/04/29 01:16:37;;;;;;;4.10;3.80;;;7.40;99.90;;;;;;5024867;28;20543;-62
2022/04/29 01:19:03;;;;;;;5.37;4.90;;;7.30;99.90;;;;;;5015075;28;20272;-62
2022/04/29 01:21:29;;;;;;;4.15;3.85;;;7.30;99.90;;;;;;5016113;28;20660;-62
2022/04/29 01:23:54;;;;;;;4.70;4.30;;;7.30;99.90;;;;;;5016120;28;20204;-62
2022/04/29 01:26:20;;;;;;;4.67;4.27;;;7.30;99.90;;;;;;5014658;28;20189;-62
2022/04/29 01:28:46;;;;;;;4.53;3.73;;;7.30;99.90;;;;;;5016100;28;20188;-62
2022/04/29 01:31:14;;;;;;;3.75;3.45;;;7.20;99.90;;;;;;5016007;28;20199;-62
2022/04/29 01:33:46;;;;;;;4.03;3.67;;;7.20;99.90;;;;;;5015505;28;20175;-62
2022/04/29 01:36:11;;;;;;;5.07;4.57;;;7.30;99.90;;;;;;5015678;28;20169;-62
2022/04/29 01:38:38;;;;;;;3.70;3.40;;;7.30;99.90;;;;;;5016112;28;20215;-62
2022/04/29 01:41:05;;;;;;;8.68;4.80;;;7.20;99.90;;;;;;5035089;28;20186;-62
2022/04/29 01:43:31;;;;;;;6.63;4.53;;;7.20;99.90;;;;;;5034787;28;20281;-62
2022/04/29 01:45:57;;;;;;;6.20;4.20;;;7.20;99.90;;;;;;5035431;28;20207;-62
2022/04/29 01:48:24;;;;;;;4.37;4.07;;;7.10;99.90;;;;;;5035750;28;20699;-62
2022/04/29 01:50:50;;;;;;;3.92;3.70;;;7.10;99.90;;;;;;5036924;28;20180;-62
2022/04/29 01:53:16;;;;;;;4.20;3.80;;;7.10;99.90;;;;;;5035977;28;20188;-62
2022/04/29 01:55:42;;;;;;;3.40;3.20;;;7.00;99.90;;;;;;5036222;28;20198;-63
2022/04/29 01:58:07;;;;;;;5.03;4.47;;;7.00;99.90;;;;;;5036585;28;20273;-62
2022/04/29 02:00:33;;;;;;;4.77;4.37;;;6.90;99.90;;;;;;5035645;28;20175;-62
2022/04/29 02:02:58;;;;;;;4.13;3.70;;;6.90;99.90;;;;;;5035421;28;20200;-62
2022/04/29 02:05:24;;;;;;;4.40;4.00;;;6.90;99.90;;;;;;5034872;28;20285;-62
2022/04/29 02:07:50;;;;;;;5.03;4.53;;;6.80;99.90;;;;;;5035041;28;20186;-62
2022/04/29 02:10:16;;;;;;;5.00;4.50;;;6.80;99.90;;;;;;5034756;28;20191;-62
2022/04/29 02:12:43;;;;;;;6.00;5.40;;;6.80;99.90;;;;;;5034388;28;20270;-62
2022/04/29 02:15:09;;;;;;;6.32;5.38;;;6.80;99.90;;;;;;5034437;28;20199;-62
2022/04/29 02:17:35;;;;;;;6.40;5.85;;;6.70;99.90;;;;;;5034599;28;20184;-62
2022/04/29 02:20:01;;;;;;;5.05;4.55;;;6.70;99.90;;;;;;5034816;28;20185;-62
2022/04/29 02:22:26;;;;;;;3.97;3.67;;;6.70;99.90;;;;;;5034698;28;20542;-62
2022/04/29 02:24:52;;;;;;;6.10;4.50;;;6.70;99.90;;;;;;5034180;28;20198;-62
2022/04/29 02:27:18;;;;;;;3.97;3.67;;;6.70;99.90;;;;;;5034497;28;20204;-62
2022/04/29 02:29:43;;;;;;;5.20;4.80;;;6.70;99.90;;;;;;5034614;28;20533;-62
2022/04/29 02:32:09;;;;;;;6.20;4.97;;;6.60;99.90;;;;;;5034568;28;20269;-62
2022/04/29 02:34:36;;;;;;;6.17;4.40;;;6.60;99.90;;;;;;5033903;28;20440;-62
2022/04/29 02:37:02;;;;;;;3.92;3.58;;;6.60;99.90;;;;;;5034783;28;20178;-62
2022/04/29 02:39:29;;;;;;;5.55;5.05;;;6.60;99.90;;;;;;5034029;28;20186;-62
2022/04/29 02:41:55;;;;;;;4.78;4.25;;;6.60;99.90;;;;;;5034154;28;20202;-62
2022/04/29 02:44:20;;;;;;;5.85;4.63;;;6.60;99.90;;;;;;5033784;28;20324;-62
2022/04/29 02:49:30;;;;;;;6.90;5.07;;;6.60;99.90;;;;;;5034404;28;20564;-62
2022/04/29 02:51:55;;;;;;;9.20;5.70;;;6.50;99.90;;;;;;5034189;28;20170;-62
2022/04/29 02:54:22;;;;;;;5.13;4.63;;;6.50;99.90;;;;;;5033426;28;20197;-62
2022/04/29 02:56:50;;;;;;;7.13;5.55;;;6.50;99.90;;;;;;5034067;28;20179;-63
2022/04/29 02:59:19;;;;;;;5.10;4.60;;;6.50;99.90;;;;;;5033880;28;20183;-62
2022/04/29 03:01:45;;;;;;;4.45;4.05;;;6.50;99.90;;;;;;5033951;28;20206;-62
2022/04/29 03:04:11;;;;;;;7.05;5.03;;;6.50;99.90;;;;;;5032018;28;20571;-62
2022/04/29 03:06:38;;;;;;;5.00;4.50;;;6.50;99.90;;;;;;5033780;28;20170;-63
2022/04/29 03:09:03;;;;;;;5.15;4.68;;;6.50;99.90;;;;;;5033495;28;20201;-65
2022/04/29 03:11:29;;;;;;;5.97;5.13;;;6.40;99.90;;;;;;5033862;28;20177;-62
2022/04/29 03:13:54;;;;;;;5.20;4.70;;;6.40;99.90;;;;;;5032355;28;20201;-62
2022/04/29 03:16:20;;;;;;;5.97;4.53;;;6.30;99.90;;;;;;5033084;28;20179;-63
2022/04/29 03:18:46;;;;;;;5.27;4.77;;;6.30;99.90;;;;;;5033653;28;20244;-63
2022/04/29 03:21:13;;;;;;;5.97;5.47;;;6.30;99.90;;;;;;5033678;28;20172;-63
2022/04/29 03:23:38;;;;;;;4.88;4.40;;;6.30;99.90;;;;;;5033011;28;20523;-63
2022/04/29 03:26:05;;;;;;;4.83;4.43;;;6.30;99.90;;;;;;5033343;28;20177;-63
2022/04/29 03:28:30;;;;;;;5.90;4.15;;;6.30;99.90;;;;;;5033615;28;20644;-63
2022/04/29 03:30:57;;;;;;;6.60;4.67;;;6.30;99.90;;;;;;5033596;28;20273;-62
2022/04/29 03:33:22;;;;;;;5.20;4.70;;;6.20;99.90;;;;;;5033158;28;20424;-63
2022/04/29 03:35:52;;;;;;;6.57;4.90;;;6.20;99.90;;;;;;5033312;28;20185;-63
2022/04/29 03:38:18;;;;;;;8.40;5.32;;;6.20;99.90;;;;;;5033065;28;20206;-63
2022/04/29 03:40:44;;;;;;;5.27;4.63;;;6.20;99.90;;;;;;5033215;28;20163;-62
2022/04/29 03:43:12;;;;;;;8.43;4.90;;;6.20;99.90;;;;;;5032811;28;20189;-62
2022/04/29 03:45:38;;;;;;;4.80;4.43;;;6.20;99.90;;;;;;5032893;28;20288;-62
2022/04/29 03:48:04;;;;;;;5.30;4.78;;;6.10;99.90;;;;;;5033321;28;20250;-63
2022/04/29 03:50:30;;;;;;;8.13;5.45;;;6.10;99.90;;;;;;5033408;28;20509;-63
2022/04/29 03:52:58;;;;;;;5.70;5.20;;;6.10;99.90;;;;;;5033179;28;20224;-63
2022/04/29 03:55:26;;;;;;;5.72;4.90;;;6.10;99.90;;;;;;5032442;28;20198;-62
2022/04/29 03:57:53;;;;;;;5.70;5.15;;;6.10;99.90;;;;;;5033315;28;20533;-63
2022/04/29 04:00:20;;;;;;;6.65;5.97;;;6.10;99.90;;;;;;5033087;28;20170;-63
2022/04/29 04:02:45;;;;;;;6.22;5.63;;;6.10;99.90;;;;;;5032987;28;20202;-63
2022/04/29 04:05:12;;;;;;;7.03;5.40;;;6.10;99.90;;;;;;5032871;28;20698;-62
2022/04/29 04:07:38;;;;;;;5.65;4.60;;;6.10;99.90;;;;;;5033071;28;20167;-62
2022/04/29 04:10:05;;;;;;;6.72;5.82;;;6.10;99.90;;;;;;5031897;28;20636;-62
2022/04/29 04:12:46;;;;;;;8.55;6.03;;;6.10;99.90;;;;;;5033028;28;20178;-62
2022/04/29 04:15:15;;;;;;;4.97;4.57;;;6.10;99.90;;;;;;5032859;28;20246;-62
2022/04/29 04:17:41;;;;;;;5.68;5.18;;;6.10;99.90;;;;;;5032837;28;20179;-62
2022/04/29 04:20:08;;;;;;;5.77;5.27;;;6.20;99.90;;;;;;5033048;28;20170;-63
2022/04/29 04:22:37;;;;;;;5.45;4.95;;;6.20;99.90;;;;;;5036048;28;20543;-63
2022/04/29 04:25:07;;;;;;;6.57;5.95;;;6.20;99.90;;;;;;5036142;28;20530;-62
2022/04/29 04:27:33;;;;;;;6.82;5.13;;;6.30;99.90;;;;;;5037159;28;20262;-62
2022/04/29 04:29:59;;;;;;;6.23;5.63;;;6.30;99.90;;;;;;5035576;28;20678;-62
2022/04/29 04:32:26;;;;;;;4.68;4.32;;;6.40;99.90;;;;;;5036641;28;20631;-63
2022/04/29 04:34:57;;;;;;;6.93;6.03;;;6.60;99.90;;;;;;5036166;28;20207;-63
2022/04/29 04:37:27;;;;;;;5.93;5.30;;;6.80;99.90;;;;;;5036804;28;20579;-63
2022/04/29 04:39:54;;;;;;;8.70;5.95;;;7.10;99.90;;;;;;5034391;28;20206;-62
2022/04/29 04:42:23;;;;;;;6.03;5.00;;;7.40;99.90;;;;;;5036447;28;20213;-63
2022/04/29 04:44:50;;;;;;;9.63;5.40;;;7.80;99.90;;;;;;5036019;28;20280;-62
2022/04/29 04:47:17;;;;;;;5.93;5.40;;;8.10;99.90;;;;;;5036252;28;20196;-63
2022/04/29 04:49:43;;;;;;;4.97;4.57;;;8.50;99.90;;;;;;5036405;28;20170;-63
2022/04/29 04:52:09;;;;;;;5.47;4.57;;;8.60;99.90;;;;;;5035696;28;20263;-63
2022/04/29 04:54:35;;;;;;;5.47;4.97;;;8.70;99.90;;;;;;5035812;28;20615;-63
2022/04/29 04:57:01;;;;;;;4.78;4.38;;;8.80;99.90;;;;;;5036191;28;20186;-63
2022/04/29 04:59:27;;;;;;;5.63;4.80;;;9.00;99.90;;;;;;5036105;28;20178;-63
2022/04/29 05:01:53;;;;;;;5.33;4.83;;;9.00;99.90;;;;;;5034906;28;20206;-63
2022/04/29 05:04:20;;;;;;;5.18;4.68;;;9.00;99.90;;;;;;5035502;28;20259;-63
2022/04/29 05:06:45;;;;;;;5.15;4.70;;;9.00;99.90;;;;;;5035882;28;20170;-63
2022/04/29 05:09:11;;;;;;;8.47;5.97;;;9.10;99.90;;;;;;5026095;28;20181;-63
2022/04/29 05:11:37;;;;;;;6.30;5.70;;;9.10;99.90;;;;;;5016184;28;20206;-64
2022/04/29 05:14:03;;;;;;;7.90;5.17;;;9.10;99.90;;;;;;5015551;28;20437;-63
2022/04/29 05:16:29;;;;;;;4.70;4.30;;;9.10;99.90;;;;;;5016110;28;20902;-63
2022/04/29 05:18:54;;;;;;;4.80;4.40;;;9.10;99.90;;;;;;5019242;28;20427;-63
2022/04/29 05:21:20;;;;;;;5.40;5.00;;;9.10;99.90;;;;;;5028460;28;20484;-62
2022/04/29 05:23:46;;;;;;;6.87;5.47;;;9.20;99.90;;;;;;5030062;28;20535;-62
2022/04/29 05:26:11;;;;;;;4.93;4.43;;;9.20;99.90;;;;;;5035638;28;20170;-63
2022/04/29 05:28:37;;;;;;;8.20;3.80;;;9.20;99.90;;;;;;5035238;28;20253;-62
2022/04/29 05:31:03;;;;;;;6.60;5.00;;;9.30;99.90;;;;;;5033704;28;20439;-63
2022/04/29 05:33:32;;;;;;;4.28;3.97;;;9.40;99.90;;;;;;5033419;28;20178;-61
2022/04/29 05:35:59;;;;;;;4.78;4.18;;;9.30;99.90;;;;;;5035079;28;20194;-61
2022/04/29 05:42:14;;;;;;;7.05;4.82;;;9.30;99.90;;;;;;5034271;28;20178;-62
2022/04/29 05:43:57;;;;;;;6.85;6.18;;;9.30;99.90;;;;;;5033802;28;20268;-61
2022/04/29 05:46:22;;;;;;;4.15;3.85;;;9.30;99.90;;;;;;5035215;28;20556;-62
2022/04/29 05:48:48;;;;;;;5.03;4.60;;;9.40;99.90;;;;;;5035341;28;20166;-62
2022/04/29 05:51:13;;;;;;;12.10;6.27;;;9.50;99.90;;;;;;5034104;28;20269;-62
2022/04/29 05:53:39;;;;;;;5.33;4.87;;;9.60;99.90;;;;;;5034766;28;20170;-61
2022/04/29 05:56:05;;;;;;;5.00;4.47;;;9.60;99.90;;;;;;5035077;28;20166;-61
2022/04/29 05:58:30;;;;;;;5.10;4.70;;;9.80;99.90;;;;;;5033507;28;20177;-61
2022/04/29 06:00:58;;;;;;;6.13;4.63;;;10.00;99.90;;;;;;5034940;28;20172;-61
2022/04/29 06:03:24;;;;;;;5.13;4.63;;;10.00;99.90;;;;;;5034619;28;20288;-62
2022/04/29 06:05:50;;;;;;;7.00;5.10;;;10.00;99.90;;;;;;5034916;28;20218;-62
2022/04/29 06:08:16;;;;;;;5.83;5.30;;;9.90;99.90;;;;;;5035007;28;20201;-62
2022/04/29 06:10:41;;;;;;;8.27;7.40;;;10.00;99.90;;;;;;5034456;28;20694;-61
2022/04/29 06:13:08;;;;;;;8.17;7.33;;;10.10;99.90;;;;;;5024496;28;20182;-62
2022/04/29 06:15:34;;;;;;;9.25;6.47;;;10.10;99.90;;;;;;5014907;28;20565;-62
2022/04/29 06:18:00;;;;;;;6.80;6.20;;;10.30;99.90;;;;;;5021138;28;20189;-62
2022/04/29 06:20:26;;;;;;;6.27;5.77;;;10.60;99.90;;;;;;5033106;28;20177;-62
2022/04/29 06:22:51;;;;;;;6.17;5.60;;;11.10;99.90;;;;;;5033044;28;20263;-62
2022/04/29 06:25:20;;;;;;;6.63;5.23;;;11.40;99.90;;;;;;5032573;28;20189;-62
2022/04/29 06:27:46;;;;;;;8.17;5.70;;;11.70;99.90;;;;;;5033030;28;20173;-62
2022/04/29 06:30:12;;;;;;;8.50;5.77;;;11.90;99.90;;;;;;5033086;28;20410;-62
2022/04/29 06:32:38;;;;;;;6.30;5.70;;;12.20;99.90;;;;;;5026506;28;21120;-62
2022/04/29 06:35:06;;;;;;;6.07;5.57;;;12.30;99.90;;;;;;5026022;28;20436;-63
2022/04/29 06:37:32;;;;;;;5.30;4.80;;;12.60;99.90;;;;;;5034287;28;20795;-62
2022/04/29 06:39:58;;;;;;;6.13;5.63;;;12.90;99.90;;;;;;5034240;28;20438;-62
2022/04/29 06:42:24;;;;;;;5.43;4.80;;;13.10;99.90;;;;;;5017578;28;20788;-62
2022/04/29 06:44:49;;;;;;;5.50;4.67;;;13.30;99.90;;;;;;5013525;28;20271;-62
2022/04/29 06:47:16;;;;;;;4.80;4.47;;;13.40;99.90;;;;;;5021507;28;20637;-62
2022/04/29 06:49:42;;;;;;;5.13;4.73;;;13.60;99.90;;;;;;5019903;28;20265;-61
2022/04/29 06:52:09;;;;;;;5.47;4.70;;;13.60;99.20;;;;;;5024227;28;20890;-62
2022/04/29 06:54:34;;;;;;;4.80;4.40;;;13.70;99.10;;;;;;5014820;28;20575;-62
2022/04/29 06:57:00;;;;;;;4.87;4.47;;;13.90;98.80;;;;;;5013938;28;20504;-61
2022/04/29 06:59:26;;;;;;;4.13;3.83;;;13.90;98.50;;;;;;5013968;28;20417;-63
2022/04/29 07:01:52;;;;;;;5.10;4.33;;;14.10;98.20;;;;;;5021412;28;20663;-63
2022/04/29 07:04:18;;;;;;;5.17;4.53;;;14.40;97.50;;;;;;5013569;28;20480;-63
2022/04/29 07:06:44;;;;;;;5.20;4.80;;;14.70;96.50;;;;;;5013877;28;20506;-62
2022/04/29 07:09:09;;;;;;;4.50;4.07;;;15.20;96.30;;;;;;5029875;28;20357;-63
2022/04/29 07:11:35;;;;;;;5.83;5.33;;;15.60;95.60;;;;;;5033605;28;20172;-62
2022/04/29 07:14:01;;;;;;;5.40;4.90;;;15.90;94.90;;;;;;5032837;28;20190;-62
2022/04/29 07:16:27;;;;;;;5.07;4.67;;;16.20;95.00;;;;;;5033245;28;21316;-63
2022/04/29 07:18:53;;;;;;;5.63;4.80;;;16.50;93.90;;;;;;5033264;28;20423;-63
2022/04/29 07:21:18;;;;;;;4.50;4.10;;;16.80;92.80;;;;;;5033195;28;20178;-64
2022/04/29 07:23:44;;;;;;;7.90;4.90;;;17.00;92.50;;;;;;5032708;28;20215;-64
2022/04/29 07:26:10;;;;;;;4.50;4.10;;;17.10;92.30;;;;;;5033358;28;20201;-64
2022/04/29 07:28:35;;;;;;;7.30;5.30;;;17.30;92.00;;;;;;5033096;28;20244;-64
2022/04/29 07:31:01;;;;;;;4.30;3.97;;;17.60;91.50;;;;;;5032701;28;20585;-64
2022/04/29 07:33:27;;;;;;;4.87;4.47;;;17.70;89.50;;;;;;5032713;28;20196;-65
2022/04/29 07:44:06;;;;;;;4.23;3.93;;;19.10;87.40;;;;;;5031581;28;20432;-63
2022/04/29 07:46:32;;;;;;;5.33;4.83;;;19.40;86.30;;;;;;5031299;28;20404;-62
2022/04/29 07:48:58;;;;;;;5.23;4.70;;;19.60;85.50;;;;;;5032822;28;20778;-62
2022/04/29 07:51:24;;;;;;;4.50;4.20;;;19.70;84.10;;;;;;5032950;28;20413;-63
2022/04/29 07:53:49;;;;;;;6.00;5.50;;;19.90;84.00;;;;;;5032850;28;20185;-62
2022/04/29 07:56:15;;;;;;;5.20;4.80;;;20.20;80.80;;;;;;5034418;28;20170;-62
2022/04/29 07:58:41;;;;;;;5.20;4.80;;;20.50;80.10;;;;;;5033677;28;20189;-63
2022/04/29 08:01:09;;;;;;;5.80;5.30;;;20.80;79.30;;;;;;5034781;28;20421;-62
2022/04/29 08:03:36;;;;;;;4.20;3.70;;;20.90;77.50;;;;;;5034859;28;20596;-62
2022/04/29 08:06:03;;;;;;;4.80;4.30;;;21.00;79.50;;;;;;5035595;28;20408;-62
2022/04/29 08:08:29;;;;;;;4.53;4.13;;;21.10;77.10;;;;;;5035279;28;20458;-62
2022/04/29 08:10:55;;;;;;;4.63;4.23;;;21.20;75.60;;;;;;5034912;28;20781;-62
2022/04/29 08:13:20;;;;;;;5.73;5.23;;;21.20;73.00;;;;;;5035135;28;20170;-62
2022/04/29 08:15:47;;;;;;;5.43;4.80;;;20.90;72.10;;;;;;5036907;28;20219;-62
2022/04/29 08:18:13;;;;;;;4.53;4.13;;;20.60;73.70;;;;;;5036545;28;20181;-63
2022/04/29 08:20:40;;;;;;;5.63;5.00;;;20.40;74.90;;;;;;5036960;28;20397;-62
2022/04/29 08:23:06;;;;;;;9.90;5.07;;;20.20;76.90;;;;;;5035920;28;20459;-62
2022/04/29 08:25:32;;;;;;;4.90;4.50;;;20.10;76.90;;;;;;5036602;28;20402;-62
2022/04/29 08:28:00;;;;;;;4.83;4.40;;;20.10;77.40;;;;;;5037049;28;20191;-62
2022/04/29 08:30:29;;;;;;;5.20;4.70;;;20.20;78.10;;;;;;5036811;28;20174;-62
2022/04/29 08:32:54;;;;;;;4.13;3.77;;;20.70;77.90;;;;;;5036897;28;20412;-62
2022/04/29 08:35:20;;;;;;;5.03;4.60;;;21.70;76.60;;;;;;5034833;28;20923;-62
2022/04/29 08:37:46;;;;;;;6.47;5.90;;;23.00;71.70;;;;;;5034127;28;20261;-62
2022/04/29 08:40:12;;;;;;;5.87;5.40;;;24.40;67.60;;;;;;5034495;28;20245;-63
2022/04/29 08:42:38;;;;;;;5.27;4.73;;;25.40;63.50;;;;;;5034550;28;20607;-63
2022/04/29 08:45:12;;;;;;;5.87;5.37;;;26.60;61.40;;;;;;5034027;28;20451;-63
2022/04/29 08:47:40;;;;;;;6.20;5.67;;;27.80;57.10;;;;;;5034575;28;20783;-63
2022/04/29 08:50:08;;;;;;;6.67;6.13;;;28.80;55.80;;;;;;5035188;28;20383;-63
2022/04/29 08:52:37;;;;;;;5.27;4.77;;;29.40;55.10;;;;;;5035898;28;20460;-63
2022/04/29 09:00:39;;;;;;;5.80;5.30;;;29.30;52.70;;;;;;5036739;28;20408;-64
2022/04/29 09:03:13;;;;;;;5.50;5.10;;;29.30;52.00;;;;;;5035815;28;20438;-63
2022/04/29 09:05:40;;;;;;;6.00;5.30;;;29.70;51.20;;;;;;5036166;28;20461;-64
2022/04/29 09:08:06;;;;;;;5.60;5.20;;;30.00;49.90;;;;;;5036101;28;20423;-63
2022/04/29 09:10:35;;;;;;;5.70;5.20;;;30.30;49.50;;;;;;5036159;28;20441;-62
2022/04/29 09:13:20;;;;;;;5.57;5.00;;;30.00;49.70;;;;;;5035737;28;20455;-62
2022/04/29 09:15:47;;;;;;;5.53;5.03;;;29.80;49.40;;;;;;5035893;28;20429;-62
2022/04/29 09:18:13;;;;;;;5.03;4.63;;;29.70;48.90;;;;;;5035812;28;20429;-62
2022/04/29 09:20:40;;;;;;;4.43;4.13;;;29.40;49.50;;;;;;5036046;28;20409;-62
2022/04/29 09:23:06;;;;;;;5.53;4.73;;;29.00;47.50;;;;;;5035350;28;20842;-62
2022/04/29 09:25:36;;;;;;;5.83;5.33;;;28.80;48.80;;;;;;5035493;28;20433;-63
2022/04/29 09:28:04;;;;;;;4.77;4.37;;;28.60;48.50;;;;;;5035720;28;20858;-64
2022/04/29 09:30:34;;;;;;;4.20;3.90;;;28.70;48.80;;;;;;5035495;28;20826;-61
2022/04/29 09:32:59;;;;;;;4.87;4.50;;;28.80;49.30;;;;;;5035508;28;20533;-62
2022/04/29 09:35:40;;;;;;;5.20;4.67;;;29.00;48.90;;;;;;5035190;28;20460;-63
2022/04/29 09:40:52;;;;;;;6.27;4.40;;;29.20;47.30;;;;;;5035796;28;20742;-62
2022/04/29 09:43:37;;;;;;;5.20;4.10;;;29.50;46.00;;;;;;5034641;28;20504;-62
2022/04/29 09:46:09;;;;;;;4.60;4.10;;;28.80;44.80;;;;;;5035413;28;20935;-61
2022/04/29 09:49:04;;;;;;;3.53;3.33;;;28.10;44.60;;;;;;5035353;28;20401;-61
2022/04/29 09:51:39;;;;;;;3.30;3.10;;;27.90;45.30;;;;;;5034112;28;20486;-62
2022/04/29 09:54:25;;;;;;;3.23;3.03;;;27.90;45.80;;;;;;5034951;28;20438;-62
2022/04/29 09:57:07;;;;;;;3.73;3.43;;;27.50;45.00;;;;;;5035221;28;20388;-61
2022/04/29 09:59:34;;;;;;;3.33;3.03;;;27.20;45.80;;;;;;5035108;28;20392;-63
2022/04/29 10:02:01;;;;;;;7.60;3.50;;;26.90;44.80;;;;;;5035159;28;20734;-62
2022/04/29 10:04:31;;;;;;;3.60;3.30;;;26.50;45.50;;;;;;5034473;28;20403;-62
2022/04/29 10:06:58;;;;;;;3.83;3.33;;;26.00;45.80;;;;;;5035179;28;20428;-62
2022/04/29 10:09:30;;;;;;;3.43;3.13;;;25.30;46.60;;;;;;5029954;28;20795;-63
2022/04/29 10:11:58;;;;;;;4.03;2.70;;;24.60;47.30;;;;;;5034932;28;20455;-62
2022/04/29 10:14:28;;;;;;;3.53;3.23;;;23.90;48.10;;;;;;5017974;28;20863;-62
2022/04/29 10:22:40;;;;;;;3.20;3.00;;;22.80;49.50;;;;;;5018074;28;20428;-64
2022/04/29 10:25:08;;;;;;;3.47;3.17;;;22.80;49.30;;;;;;5033849;28;20433;-63
2022/04/29 10:27:34;;;;;;;3.00;2.90;;;22.60;49.80;;;;;;5034600;28;20490;-63
2022/04/29 10:30:00;;;;;;;3.13;2.93;;;22.50;49.60;;;;;;5034436;28;20412;-63
2022/04/29 10:32:26;;;;;;;2.90;2.70;;;22.60;50.00;;;;;;5034796;28;20449;-62
2022/04/29 10:34:55;;;;;;;2.47;2.27;;;22.80;49.30;;;;;;5034109;28;20415;-63
2022/04/29 10:37:32;;;;;;;3.30;2.70;;;23.10;49.00;;;;;;5030953;28;20577;-64
2022/04/29 10:40:11;;;;;;;3.57;2.83;;;23.40;49.70;;;;;;5014615;28;20405;-63
2022/04/29 10:43:09;;;;;;;2.47;2.37;;;24.00;49.40;;;;;;5014608;28;20537;-62
2022/04/29 10:45:55;;;;;;;3.07;2.87;;;24.40;48.70;;;;;;5014266;28;20420;-61
2022/04/29 10:48:35;;;;;;;2.83;2.63;;;24.50;47.60;;;;;;5012852;28;20422;-63
2022/04/29 10:51:21;;;;;;;2.83;2.63;;;24.40;47.90;;;;;;5014509;28;20407;-62
2022/04/29 10:53:50;;;;;;;2.80;2.60;;;24.10;47.10;;;;;;5030806;28;20765;-62
2022/04/29 10:56:30;;;;;;;2.90;2.70;;;24.00;47.10;;;;;;5033974;28;20411;-63
2022/04/29 10:59:08;;;;;;;3.10;2.90;;;24.20;47.20;;;;;;5033808;28;20413;-62
2022/04/29 11:01:35;;;;;;;2.70;2.50;;;24.40;47.10;;;;;;5033585;28;20444;-62
2022/04/29 11:04:01;;;;;;;2.73;2.53;;;24.50;47.10;;;;;;5033158;28;20452;-62
2022/04/29 11:06:40;;;;;;;2.50;2.40;;;24.70;48.10;;;;;;5033507;28;20393;-62
2022/04/29 11:09:28;;;;;;;2.50;2.30;;;24.80;46.90;;;;;;5013942;28;20415;-60
2022/04/29 11:11:55;;;;;;;3.13;2.93;;;24.60;47.50;;;;;;5013842;28;20456;-61
2022/04/29 11:14:21;;;;;;;2.73;2.53;;;24.20;46.80;;;;;;5013555;28;20796;-62
2022/04/29 11:17:07;;;;;;;3.67;3.37;;;23.80;48.00;;;;;;5013893;28;20406;-63
2022/04/29 11:19:45;;;;;;;2.77;2.57;;;23.40;47.90;;;;;;5014142;28;20505;-61
2022/04/29 11:25:02;;;;;;;3.00;2.80;;;22.70;49.60;;;;;;5032996;28;20479;-61
2022/04/29 11:27:30;;;;;;;2.90;2.67;;;22.40;48.80;;;;;;5033504;28;20438;-61
2022/04/29 11:30:02;;;;;;;2.37;2.17;;;22.10;50.10;;;;;;5033142;28;20761;-63
2022/04/29 11:32:30;;;;;;;2.87;2.67;;;22.00;50.20;;;;;;5033188;28;20461;-64
2022/04/29 11:35:00;;;;;;;2.23;2.13;;;21.90;49.50;;;;;;5031551;28;20955;-64
2022/04/29 11:37:33;;;;;;;2.60;2.40;;;21.90;49.40;;;;;;5020657;28;20426;-62
2022/04/29 11:40:07;;;;;;;3.40;2.47;;;21.70;49.60;;;;;;5013348;28;20414;-64
2022/04/29 11:42:34;;;;;;;2.60;2.40;;;21.60;49.90;;;;;;5013390;28;20906;-65
2022/04/29 11:45:09;;;;;;;2.20;2.10;;;21.50;49.50;;;;;;5012840;28;20483;-64
2022/04/29 11:47:36;;;;;;;2.87;2.67;;;21.40;50.00;;;;;;5013121;28;20507;-63
2022/04/29 11:50:03;;;;;;;4.80;2.50;;;21.50;50.90;;;;;;5013518;28;20426;-65
2022/04/29 11:52:31;;;;;;;3.97;3.00;;;21.60;49.30;;;;;;5027412;28;21074;-64
2022/04/29 11:55:02;;;;;;;1.97;1.87;;;21.70;50.80;;;;;;5032451;28;20955;-68
2022/04/29 11:57:30;;;;;;;2.40;2.30;;;21.80;48.90;;;;;;5032868;28;20369;-63
2022/04/29 11:59:57;;;;;;;2.13;2.03;;;21.90;49.30;;;;;;5032903;28;20411;-65
2022/04/29 12:02:24;;;;;;;2.60;2.40;;;22.00;49.50;;;;;;5031644;28;20789;-66
2022/04/29 12:05:00;;;;;;;2.30;2.20;;;22.20;49.20;;;;;;5032352;28;20424;-61
2022/04/29 12:07:40;;;;;;;2.97;2.70;;;22.20;48.90;;;;;;5017360;28;20435;-62
2022/04/29 12:10:16;;;;;;;2.73;2.53;;;22.10;48.80;;;;;;5027072;28;20422;-62
2022/04/29 12:12:41;;;;;;;3.10;2.77;;;22.00;48.20;;;;;;5013073;28;20547;-65
2022/04/29 12:15:10;;;;;;;2.43;2.23;;;21.90;48.40;;;;;;5012799;28;20874;-64
2022/04/29 12:17:38;;;;;;;4.70;3.53;;;21.80;48.20;;;;;;5011809;28;20171;-66
2022/04/29 12:20:14;;;;;;;2.27;2.13;;;21.80;49.50;;;;;;5013152;28;20377;-65
2022/04/29 12:22:40;;;;;;;2.13;2.03;;;21.90;49.00;;;;;;5016647;28;20420;-64
2022/04/29 12:25:29;;;;;;;2.47;2.27;;;22.00;48.60;;;;;;5032114;28;20966;-64
2022/04/29 12:28:11;;;;;;;2.70;2.50;;;22.10;48.30;;;;;;5032767;28;20461;-64
2022/04/29 12:36:13;;;;;;;2.40;2.30;;;22.20;49.10;;;;;;5031329;28;20460;-64
2022/04/29 12:38:40;;;;;;;2.43;2.33;;;22.30;49.40;;;;;;5031775;28;20416;-65
2022/04/29 12:41:33;;;;;;;2.40;2.30;;;22.30;49.20;;;;;;5030803;28;20432;-64
2022/04/29 12:45:03;;;;;;;3.30;3.00;;;22.30;49.50;;;;;;5035070;28;20771;-64
2022/04/29 12:47:00;;;;;;;2.70;2.50;;;22.30;48.60;;;;;;5035537;28;20413;-64
2022/04/29 12:49:26;;;;;;;2.43;2.23;;;22.10;49.20;;;;;;5034380;28;20499;-64
2022/04/29 12:51:59;;;;;;;2.63;2.43;;;22.10;49.30;;;;;;5035551;28;20542;-63
2022/04/29 12:54:26;;;;;;;2.80;2.60;;;22.20;49.00;;;;;;5035631;28;20933;-64
2022/04/29 12:56:52;;;;;;;2.70;2.40;;;22.20;48.30;;;;;;5035093;28;20774;-64
2022/04/29 12:59:24;;;;;;;3.50;2.37;;;22.20;48.70;;;;;;5036134;28;20406;-63
2022/04/29 13:01:53;;;;;;;2.30;2.20;;;22.30;50.00;;;;;;5034895;28;20177;-65
2022/04/29 13:04:19;;;;;;;2.67;2.43;;;22.40;49.10;;;;;;5035867;28;20432;-64
2022/04/29 13:06:44;;;;;;;2.80;2.57;;;22.40;49.40;;;;;;5035568;28;20427;-65
2022/04/29 13:09:11;;;;;;;2.50;2.30;;;22.40;49.10;;;;;;5035895;28;20423;-64
2022/04/29 13:11:37;;;;;;;2.30;2.20;;;22.40;50.60;;;;;;5035951;28;20185;-64
2022/04/29 13:14:03;;;;;;;2.60;2.40;;;22.40;49.60;;;;;;5035659;28;20434;-65
2022/04/29 13:16:28;;;;;;;3.20;2.67;;;22.50;50.00;;;;;;5035877;28;20201;-63
2022/04/29 13:18:54;;;;;;;2.70;2.50;;;22.50;50.50;;;;;;5035993;28;20450;-63
2022/04/29 13:21:20;;;;;;;2.47;2.27;;;22.60;50.60;;;;;;5035548;28;20570;-63
2022/04/29 13:23:46;;;;;;;2.70;2.33;;;22.50;49.90;;;;;;5035245;28;20424;-63
2022/04/29 13:26:13;;;;;;;2.20;2.07;;;22.40;50.40;;;;;;5035640;28;20422;-67
2022/04/29 13:28:40;;;;;;;4.50;2.37;;;22.30;50.20;;;;;;5035168;28;20416;-64
2022/04/29 13:31:07;;;;;;;2.00;1.90;;;22.00;50.30;;;;;;5035601;28;20409;-64